Terminal Aerodrome Forecast
Issued by NWS

Home | Current Version | Previous Version | Text Only | Print | Product List | Glossary On
Versions: 1 2 3 4 5 6 7 8 9 10 11 12 13 14 15 16 17 18 19 20 21 22 23 24 25 26 27 28 29 30
000
FTUS43 KSGF 211700
TAFBBG
TAF
KBBG 211733Z 2118/2218 15008KT P6SM FEW012 SCT025 OVC035
      TEMPO 2118/2122 SCT012 BKN025 OVC030
     FM220800 14009KT P6SM OVC030
     FM221300 15010KT 5SM BR VCSH OVC015=

USA.gov is the U.S. government's official web portal to all federal, state and local government web resources and services.